Fromveur II — FICH — position and weather

sailwx.info

Track history (hours):
 
Tides and Currents Weather Stations Pressure Air Temp Water Temp Dewpoint Dewpoint Depression Visibility Wind Speed Wind Dir Waves Ship Positions

Fromveur II

Last reported at 2018-Jan-18 10:00 UTC. Time now 2018-Jan-18 10:20 UTC.
Position N 48°28' W 005°00'.

Length 45 m; draft 2.8 m.

Type: Ship. MMSI: 228017700.

Date/timePositionNaut miles runAvg speedWind from/ knotsBaromVisibWave heightAir tempDewpointWater temp
2018-Jan-18 10:00N 48°28' W 005°00'4 7.6
2018-Jan-18 09:30N 48°24' W 004°57'511.1
2018-Jan-18 09:01N 48°23' W 004°49'3 5.5
2018-Jan-18 08:31N 48°21' W 004°47'611.2
2018-Jan-18 08:01N 48°19' W 004°39'713.7
2018-Jan-18 07:30N 48°22' W 004°30'1 2.6
2018-Jan-18 06:59N 48°23' W 004°29'0 0.0
2018-Jan-18 06:27N 48°23' W 004°29'0 0.0
2018-Jan-18 05:59N 48°23' W 004°29'0 0.0
2018-Jan-18 05:29N 48°23' W 004°29'0 0.0
2018-Jan-18 05:00N 48°23' W 004°29'0 0.0
2018-Jan-18 04:29N 48°23' W 004°29'0 0.0
2018-Jan-18 03:56N 48°23' W 004°29'0 0.0
2018-Jan-18 03:23N 48°23' W 004°29'0 0.0
2018-Jan-18 03:00N 48°23' W 004°29'0 0.0
2018-Jan-18 02:28N 48°23' W 004°29'0 0.0
2018-Jan-18 01:58N 48°23' W 004°29'0 0.0
2018-Jan-18 01:29N 48°23' W 004°29'0 0.0
2018-Jan-18 00:59N 48°23' W 004°29'0 0.0
2018-Jan-17 23:56N 48°23' W 004°29'  
2018-Jan-12 15:00N 48°24' W 004°50'5 9.5
2018-Jan-12 14:30N 48°24' W 004°57'611.1
2018-Jan-12 14:00N 48°28' W 005°03'0 0.0
2018-Jan-12 13:31N 48°28' W 005°03'0 0.0
2018-Jan-12 13:00N 48°28' W 005°03'0 0.0
2018-Jan-12 12:30N 48°28' W 005°03'0 0.0
2018-Jan-12 12:00N 48°28' W 005°03'0 0.0
2018-Jan-12 11:21N 48°28' W 005°03'0 0.0
2018-Jan-12 11:00N 48°28' W 005°03'3 5.0
2018-Jan-12 10:29N 48°27' W 004°60'4 7.5
2018-Jan-12 10:00N 48°25' W 004°56'713.3
2018-Jan-12 09:30N 48°22' W 004°47'4 6.7
2018-Jan-12 08:58N 48°24' W 004°51'4 9.3
2018-Jan-12 08:30N 48°24' W 004°57'611.3
2018-Jan-12 08:01N 48°28' W 005°03'0 0.1
2018-Jan-12 07:29N 48°28' W 005°03'0 0.0
2018-Jan-12 06:55N 48°28' W 005°03'0 0.0
2018-Jan-12 06:26N 48°28' W 005°03'0 0.0
2018-Jan-12 05:55N 48°28' W 005°03'0 0.0
2018-Jan-12 05:30N 48°28' W 005°03'0 0.0
2018-Jan-12 04:53N 48°28' W 005°03'0 0.0
2018-Jan-12 04:28N 48°28' W 005°03'0 0.0
2018-Jan-12 04:00N 48°28' W 005°03'0 0.0
2018-Jan-12 03:25N 48°28' W 005°03'0 0.0
2018-Jan-12 02:51N 48°28' W 005°03'0 0.0
2018-Jan-12 02:29N 48°28' W 005°03'0 0.0
2018-Jan-12 02:00N 48°28' W 005°03'0 0.0
2018-Jan-12 01:23N 48°28' W 005°03'0 0.0
2018-Jan-12 00:59N 48°28' W 005°03'0 0.0
2018-Jan-12 00:27N 48°28' W 005°03'0 0.0
2018-Jan-11 23:57N 48°28' W 005°03'0 0.0
2018-Jan-11 23:28N 48°28' W 005°03'0 0.0
2018-Jan-11 22:57N 48°28' W 005°03'0 0.0
2018-Jan-11 22:26N 48°28' W 005°03'0 0.0
2018-Jan-11 21:59N 48°28' W 005°03'0 0.0
2018-Jan-11 21:26N 48°28' W 005°03'0 0.0
2018-Jan-11 20:54N 48°28' W 005°03'0 0.0
2018-Jan-11 20:27N 48°28' W 005°03'0 0.0
2018-Jan-11 19:57N 48°28' W 005°03'0 0.0
2018-Jan-11 19:17N 48°28' W 005°03'0 0.0
2018-Jan-11 19:00N 48°28' W 005°03'0 0.0
2018-Jan-11 18:29N 48°28' W 005°03'0 0.0
2018-Jan-11 17:58N 48°28' W 005°03'612.9
2018-Jan-11 17:31N 48°26' W 004°55'713.6
2018-Jan-11 17:00N 48°22' W 004°47'4 7.5
2018-Jan-11 16:30N 48°24' W 004°51'4 8.4
2018-Jan-11 16:00N 48°24' W 004°57'610.8
2018-Jan-11 15:29N 48°28' W 005°03'0 0.0
2018-Jan-11 15:00N 48°28' W 005°03'0 0.0
2018-Jan-11 14:30N 48°28' W 005°03'0 0.0
2018-Jan-11 13:37N 48°28' W 005°03'0 0.0
2018-Jan-11 13:30N 48°28' W 005°03'0 0.0
2018-Jan-11 12:53N 48°28' W 005°03'0 0.0
2018-Jan-11 12:30N 48°28' W 005°03'0 0.0
2018-Jan-11 12:00N 48°28' W 005°03'0 0.0
2018-Jan-11 11:30N 48°28' W 005°03'0 0.0
2018-Jan-11 10:58N 48°28' W 005°03'0 0.0
2018-Jan-11 10:30N 48°28' W 005°03'1 2.8
2018-Jan-11 10:01N 48°28' W 005°01'5 8.2
2018-Jan-11 09:27N 48°24' W 004°57'511.3
2018-Jan-11 09:01N 48°24' W 004°50'3 5.6
2018-Jan-11 08:30N 48°22' W 004°47'510.7
2018-Jan-11 08:00N 48°20' W 004°39'713.7
2018-Jan-11 07:31N 48°22' W 004°30'1 1.9
2018-Jan-11 07:00N 48°23' W 004°29'0 0.0
2018-Jan-11 06:28N 48°23' W 004°29'0 0.0
2018-Jan-11 05:58N 48°23' W 004°29'0 0.0
2018-Jan-11 05:29N 48°23' W 004°29'0 0.0
2018-Jan-11 04:58N 48°23' W 004°29'0 0.0
2018-Jan-11 04:28N 48°23' W 004°29'0 0.0
2018-Jan-11 04:01N 48°23' W 004°29'0 0.0
2018-Jan-11 03:28N 48°23' W 004°29'0 0.0
2018-Jan-11 03:00N 48°23' W 004°29'0 0.0
2018-Jan-11 02:25N 48°23' W 004°29'0 0.0
2018-Jan-11 02:00N 48°23' W 004°29'0 0.0
2018-Jan-11 01:29N 48°23' W 004°29'0 0.0
2018-Jan-11 00:58N 48°23' W 004°29'0 0.0
2018-Jan-11 00:30N 48°23' W 004°29'0 0.0
2018-Jan-11 00:00N 48°23' W 004°29'0 0.0
2018-Jan-10 23:29N 48°23' W 004°29'0 0.0
2018-Jan-10 22:58N 48°23' W 004°29'0 0.0
2018-Jan-10 22:26N 48°23' W 004°29'0 0.0
2018-Jan-10 21:59N 48°23' W 004°29'0 0.0
2018-Jan-10 21:29N 48°23' W 004°29'0 0.0
2018-Jan-10 20:58N 48°23' W 004°29'0 0.0
2018-Jan-10 20:28N 48°23' W 004°29'0 0.0
2018-Jan-10 19:54N 48°23' W 004°29'0 0.0
2018-Jan-10 19:28N 48°23' W 004°29'0 0.0
2018-Jan-10 18:59N 48°23' W 004°29'0 0.0
2018-Jan-10 18:30N 48°23' W 004°29'0 0.0
2018-Jan-10 17:59N 48°23' W 004°29'0 0.0
2018-Jan-10 17:30N 48°23' W 004°29'0 0.0
2018-Jan-10 16:59N 48°23' W 004°29'0 0.0
2018-Jan-10 16:25N 48°23' W 004°29'0 0.0
2018-Jan-10 15:58N 48°23' W 004°29'0 0.0
2018-Jan-10 15:30N 48°23' W 004°29'0 0.0
2018-Jan-10 14:58N 48°23' W 004°29'0 0.0
2018-Jan-10 14:29N 48°23' W 004°29'0 0.0
2018-Jan-10 14:00N 48°23' W 004°29'0 0.0
2018-Jan-10 13:29N 48°23' W 004°29'3 6.0
2018-Jan-10 13:00N 48°21' W 004°33'714.2
2018-Jan-10 12:31N 48°20' W 004°43'3 6.7
2018-Jan-10 12:00N 48°22' W 004°47'713.8
2018-Jan-10 11:30N 48°25' W 004°56'3 6.0
2018-Jan-10 11:00N 48°27' W 004°59'3 5.8
2018-Jan-10 10:30N 48°28' W 005°03'1 2.6
2018-Jan-10 10:00N 48°28' W 005°01'5 8.5
2018-Jan-10 09:27N 48°24' W 004°57'511.3
2018-Jan-10 09:01N 48°23' W 004°50'2 4.6
2018-Jan-10 08:30N 48°21' W 004°47'611.8
2018-Jan-10 08:01N 48°20' W 004°39'713.1
2018-Jan-10 07:30N 48°22' W 004°29'1 1.4
2018-Jan-10 06:57N 48°23' W 004°29'0 0.0
2018-Jan-10 06:23N 48°23' W 004°29'0 0.0
2018-Jan-10 06:00N 48°23' W 004°29'0 0.0
2018-Jan-10 05:30N 48°23' W 004°29'0 0.0
2018-Jan-10 04:57N 48°23' W 004°29'0 0.0
2018-Jan-10 04:28N 48°23' W 004°29'0 0.0
2018-Jan-10 04:00N 48°23' W 004°29'0 0.0
2018-Jan-10 03:29N 48°23' W 004°29'0 0.0
2018-Jan-10 02:58N 48°23' W 004°29'0 0.0
2018-Jan-10 02:28N 48°23' W 004°29'0 0.0
2018-Jan-10 01:59N 48°23' W 004°29'0 0.0
2018-Jan-10 01:28N 48°23' W 004°29'0 0.0
2018-Jan-10 00:59N 48°23' W 004°29'0 0.0
2018-Jan-10 00:30N 48°23' W 004°29'0 0.0
2018-Jan-10 00:00N 48°23' W 004°29'0 0.0
2018-Jan-09 23:30N 48°23' W 004°29'0 0.0
2018-Jan-09 22:59N 48°23' W 004°29'0 0.0
2018-Jan-09 22:24N 48°23' W 004°29'0 0.0
2018-Jan-09 22:00N 48°23' W 004°29'0 0.0
2018-Jan-09 21:28N 48°23' W 004°29'0 0.0
2018-Jan-09 21:00N 48°23' W 004°29'0 0.0
2018-Jan-09 20:30N 48°23' W 004°29'0 0.0
2018-Jan-09 19:58N 48°23' W 004°29'0 0.0
2018-Jan-09 19:27N 48°23' W 004°29'0 0.0
2018-Jan-09 18:53N 48°23' W 004°29'0 0.0
2018-Jan-09 18:29N 48°23' W 004°29'0 0.0
2018-Jan-09 18:00N 48°23' W 004°29'0 0.0
2018-Jan-09 17:27N 48°23' W 004°29'0 0.0
2018-Jan-09 17:00N 48°23' W 004°29'0 0.0
2018-Jan-09 16:28N 48°23' W 004°29'0 0.0
2018-Jan-09 15:58N 48°23' W 004°29'0 0.0
2018-Jan-09 15:29N 48°23' W 004°29'0 0.0
2018-Jan-09 14:59N 48°23' W 004°29'0 0.0
2018-Jan-09 14:30N 48°23' W 004°29'0 0.0
2018-Jan-09 14:00N 48°23' W 004°29'0 0.0
2018-Jan-09 13:30N 48°23' W 004°29'0 0.0
2018-Jan-09 13:00N 48°23' W 004°29'0 0.0
2018-Jan-09 12:30N 48°23' W 004°29'0 0.0
2018-Jan-09 12:00N 48°23' W 004°29'0 0.0
2018-Jan-09 11:24N 48°23' W 004°29'0 0.0
2018-Jan-09 11:00N 48°23' W 004°29'0 0.0
2018-Jan-09 10:29N 48°23' W 004°29'0 0.0
2018-Jan-09 09:59N 48°23' W 004°29'0 0.0
2018-Jan-09 09:29N 48°23' W 004°29'0 0.0
2018-Jan-09 08:59N 48°23' W 004°29'0 0.0
2018-Jan-09 08:29N 48°23' W 004°29'0 0.0
2018-Jan-09 07:59N 48°23' W 004°29'0 0.0
2018-Jan-09 07:29N 48°23' W 004°29'0 0.0
2018-Jan-09 06:55N 48°23' W 004°29'0 0.0
2018-Jan-09 06:28N 48°23' W 004°29'0 0.0
2018-Jan-09 05:57N 48°23' W 004°29'0 0.0
2018-Jan-09 05:29N 48°23' W 004°29'0 0.0
2018-Jan-09 05:00N 48°23' W 004°29'0 0.0
2018-Jan-09 04:29N 48°23' W 004°29'0 0.0
2018-Jan-09 04:00N 48°23' W 004°29'0 0.0
2018-Jan-09 03:25N 48°23' W 004°29'0 0.0
2018-Jan-09 03:00N 48°23' W 004°29'0 0.0
2018-Jan-09 02:28N 48°23' W 004°29'0 0.0
2018-Jan-09 01:58N 48°23' W 004°29'0 0.0
2018-Jan-09 01:29N 48°23' W 004°29'0 0.0
2018-Jan-09 00:58N 48°23' W 004°29'0 0.0
2018-Jan-09 00:28N 48°23' W 004°29'0 0.0
2018-Jan-09 00:00N 48°23' W 004°29'0 0.0
2018-Jan-08 23:30N 48°23' W 004°29'0 0.0
2018-Jan-08 23:00N 48°23' W 004°29'0 0.0
2018-Jan-08 22:30N 48°23' W 004°29'0 0.0
2018-Jan-08 21:59N 48°23' W 004°29'0 0.0
2018-Jan-08 21:29N 48°23' W 004°29'0 0.0
2018-Jan-08 21:00N 48°23' W 004°29'0 0.0
2018-Jan-08 20:29N 48°23' W 004°29'0 0.0
2018-Jan-08 19:58N 48°23' W 004°29'0 0.0
2018-Jan-08 19:28N 48°23' W 004°29'0 0.0
2018-Jan-08 19:00N 48°23' W 004°29'0 0.0
2018-Jan-08 18:30N 48°23' W 004°29'2 4.1
2018-Jan-08 18:01N 48°21' W 004°31'816.2
2018-Jan-08 17:31N 48°20' W 004°43'3 6.4
2018-Jan-08 17:00N 48°22' W 004°47'5 9.6
2018-Jan-08 16:30N 48°24' W 004°53'3 5.7
2018-Jan-08 16:00N 48°25' W 004°57'5 4.1
2018-Jan-08 14:42N 48°28' W 005°03'0 0.0
2018-Jan-08 14:30N 48°28' W 005°03'0 0.0
2018-Jan-08 14:00N 48°28' W 005°03'0 0.0
2018-Jan-08 13:30N 48°28' W 005°03'0 0.0
2018-Jan-08 12:45N 48°28' W 005°03'0 0.0
2018-Jan-08 12:30N 48°28' W 005°03'0 0.0
2018-Jan-08 12:00N 48°28' W 005°03'0 0.0
2018-Jan-08 11:30N 48°28' W 005°03'0 0.0
2018-Jan-08 10:48N 48°28' W 005°03'0 0.0
2018-Jan-08 10:30N 48°28' W 005°03'1 2.7
2018-Jan-08 10:01N 48°28' W 005°01'  
Track history (hours):
 
Tides and Currents Weather Stations Pressure Air Temp Water Temp Dewpoint Dewpoint Depression Visibility Wind Speed Wind Dir Waves Ship Positions

Fromveur II

Last reported at 2018-Jan-18 10:00 UTC. Time now 2018-Jan-18 10:20 UTC.
Position N 48°28' W 005°00'.

Length 45 m; draft 2.8 m.

Type: Ship. MMSI: 228017700.

Date/timePositionNaut miles runAvg speedWind from/ knotsBaromVisibWave heightAir tempDewpointWater temp
2018-Jan-18 10:00N 48°28' W 005°00'4 7.6
2018-Jan-18 09:30N 48°24' W 004°57'511.1
2018-Jan-18 09:01N 48°23' W 004°49'3 5.5
2018-Jan-18 08:31N 48°21' W 004°47'611.2
2018-Jan-18 08:01N 48°19' W 004°39'713.7
2018-Jan-18 07:30N 48°22' W 004°30'1 2.6
2018-Jan-18 06:59N 48°23' W 004°29'0 0.0
2018-Jan-18 06:27N 48°23' W 004°29'0 0.0
2018-Jan-18 05:59N 48°23' W 004°29'0 0.0
2018-Jan-18 05:29N 48°23' W 004°29'0 0.0
2018-Jan-18 05:00N 48°23' W 004°29'0 0.0
2018-Jan-18 04:29N 48°23' W 004°29'0 0.0
2018-Jan-18 03:56N 48°23' W 004°29'0 0.0
2018-Jan-18 03:23N 48°23' W 004°29'0 0.0
2018-Jan-18 03:00N 48°23' W 004°29'0 0.0
2018-Jan-18 02:28N 48°23' W 004°29'0 0.0
2018-Jan-18 01:58N 48°23' W 004°29'0 0.0
2018-Jan-18 01:29N 48°23' W 004°29'0 0.0
2018-Jan-18 00:59N 48°23' W 004°29'0 0.0
2018-Jan-17 23:56N 48°23' W 004°29'  
2018-Jan-12 15:00N 48°24' W 004°50'5 9.5
2018-Jan-12 14:30N 48°24' W 004°57'611.1
2018-Jan-12 14:00N 48°28' W 005°03'0 0.0
2018-Jan-12 13:31N 48°28' W 005°03'0 0.0
2018-Jan-12 13:00N 48°28' W 005°03'0 0.0
2018-Jan-12 12:30N 48°28' W 005°03'0 0.0
2018-Jan-12 12:00N 48°28' W 005°03'0 0.0
2018-Jan-12 11:21N 48°28' W 005°03'0 0.0
2018-Jan-12 11:00N 48°28' W 005°03'3 5.0
2018-Jan-12 10:29N 48°27' W 004°60'4 7.5
2018-Jan-12 10:00N 48°25' W 004°56'713.3
2018-Jan-12 09:30N 48°22' W 004°47'4 6.7
2018-Jan-12 08:58N 48°24' W 004°51'4 9.3
2018-Jan-12 08:30N 48°24' W 004°57'611.3
2018-Jan-12 08:01N 48°28' W 005°03'0 0.1
2018-Jan-12 07:29N 48°28' W 005°03'0 0.0
2018-Jan-12 06:55N 48°28' W 005°03'0 0.0
2018-Jan-12 06:26N 48°28' W 005°03'0 0.0
2018-Jan-12 05:55N 48°28' W 005°03'0 0.0
2018-Jan-12 05:30N 48°28' W 005°03'0 0.0
2018-Jan-12 04:53N 48°28' W 005°03'0 0.0
2018-Jan-12 04:28N 48°28' W 005°03'0 0.0
2018-Jan-12 04:00N 48°28' W 005°03'0 0.0
2018-Jan-12 03:25N 48°28' W 005°03'0 0.0
2018-Jan-12 02:51N 48°28' W 005°03'0 0.0
2018-Jan-12 02:29N 48°28' W 005°03'0 0.0
2018-Jan-12 02:00N 48°28' W 005°03'0 0.0
2018-Jan-12 01:23N 48°28' W 005°03'0 0.0
2018-Jan-12 00:59N 48°28' W 005°03'0 0.0
2018-Jan-12 00:27N 48°28' W 005°03'0 0.0
2018-Jan-11 23:57N 48°28' W 005°03'0 0.0
2018-Jan-11 23:28N 48°28' W 005°03'0 0.0
2018-Jan-11 22:57N 48°28' W 005°03'0 0.0
2018-Jan-11 22:26N 48°28' W 005°03'0 0.0
2018-Jan-11 21:59N 48°28' W 005°03'0 0.0
2018-Jan-11 21:26N 48°28' W 005°03'0 0.0
2018-Jan-11 20:54N 48°28' W 005°03'0 0.0
2018-Jan-11 20:27N 48°28' W 005°03'0 0.0
2018-Jan-11 19:57N 48°28' W 005°03'0 0.0
2018-Jan-11 19:17N 48°28' W 005°03'0 0.0
2018-Jan-11 19:00N 48°28' W 005°03'0 0.0
2018-Jan-11 18:29N 48°28' W 005°03'0 0.0
2018-Jan-11 17:58N 48°28' W 005°03'612.9
2018-Jan-11 17:31N 48°26' W 004°55'713.6
2018-Jan-11 17:00N 48°22' W 004°47'4 7.5
2018-Jan-11 16:30N 48°24' W 004°51'4 8.4
2018-Jan-11 16:00N 48°24' W 004°57'610.8
2018-Jan-11 15:29N 48°28' W 005°03'0 0.0
2018-Jan-11 15:00N 48°28' W 005°03'0 0.0
2018-Jan-11 14:30N 48°28' W 005°03'0 0.0
2018-Jan-11 13:37N 48°28' W 005°03'0 0.0
2018-Jan-11 13:30N 48°28' W 005°03'0 0.0
2018-Jan-11 12:53N 48°28' W 005°03'0 0.0
2018-Jan-11 12:30N 48°28' W 005°03'0 0.0
2018-Jan-11 12:00N 48°28' W 005°03'0 0.0
2018-Jan-11 11:30N 48°28' W 005°03'0 0.0
2018-Jan-11 10:58N 48°28' W 005°03'0 0.0
2018-Jan-11 10:30N 48°28' W 005°03'1 2.8
2018-Jan-11 10:01N 48°28' W 005°01'5 8.2
2018-Jan-11 09:27N 48°24' W 004°57'511.3
2018-Jan-11 09:01N 48°24' W 004°50'3 5.6
2018-Jan-11 08:30N 48°22' W 004°47'510.7
2018-Jan-11 08:00N 48°20' W 004°39'713.7
2018-Jan-11 07:31N 48°22' W 004°30'1 1.9
2018-Jan-11 07:00N 48°23' W 004°29'0 0.0
2018-Jan-11 06:28N 48°23' W 004°29'0 0.0
2018-Jan-11 05:58N 48°23' W 004°29'0 0.0
2018-Jan-11 05:29N 48°23' W 004°29'0 0.0
2018-Jan-11 04:58N 48°23' W 004°29'0 0.0
2018-Jan-11 04:28N 48°23' W 004°29'0 0.0
2018-Jan-11 04:01N 48°23' W 004°29'0 0.0
2018-Jan-11 03:28N 48°23' W 004°29'0 0.0
2018-Jan-11 03:00N 48°23' W 004°29'0 0.0
2018-Jan-11 02:25N 48°23' W 004°29'0 0.0
2018-Jan-11 02:00N 48°23' W 004°29'0 0.0
2018-Jan-11 01:29N 48°23' W 004°29'0 0.0
2018-Jan-11 00:58N 48°23' W 004°29'0 0.0
2018-Jan-11 00:30N 48°23' W 004°29'0 0.0
2018-Jan-11 00:00N 48°23' W 004°29'0 0.0
2018-Jan-10 23:29N 48°23' W 004°29'0 0.0
2018-Jan-10 22:58N 48°23' W 004°29'0 0.0
2018-Jan-10 22:26N 48°23' W 004°29'0 0.0
2018-Jan-10 21:59N 48°23' W 004°29'0 0.0
2018-Jan-10 21:29N 48°23' W 004°29'0 0.0
2018-Jan-10 20:58N 48°23' W 004°29'0 0.0
2018-Jan-10 20:28N 48°23' W 004°29'0 0.0
2018-Jan-10 19:54N 48°23' W 004°29'0 0.0
2018-Jan-10 19:28N 48°23' W 004°29'0 0.0
2018-Jan-10 18:59N 48°23' W 004°29'0 0.0
2018-Jan-10 18:30N 48°23' W 004°29'0 0.0
2018-Jan-10 17:59N 48°23' W 004°29'0 0.0
2018-Jan-10 17:30N 48°23' W 004°29'0 0.0
2018-Jan-10 16:59N 48°23' W 004°29'0 0.0
2018-Jan-10 16:25N 48°23' W 004°29'0 0.0
2018-Jan-10 15:58N 48°23' W 004°29'0 0.0
2018-Jan-10 15:30N 48°23' W 004°29'0 0.0
2018-Jan-10 14:58N 48°23' W 004°29'0 0.0
2018-Jan-10 14:29N 48°23' W 004°29'0 0.0
2018-Jan-10 14:00N 48°23' W 004°29'0 0.0
2018-Jan-10 13:29N 48°23' W 004°29'3 6.0
2018-Jan-10 13:00N 48°21' W 004°33'714.2
2018-Jan-10 12:31N 48°20' W 004°43'3 6.7
2018-Jan-10 12:00N 48°22' W 004°47'713.8
2018-Jan-10 11:30N 48°25' W 004°56'3 6.0
2018-Jan-10 11:00N 48°27' W 004°59'3 5.8
2018-Jan-10 10:30N 48°28' W 005°03'1 2.6
2018-Jan-10 10:00N 48°28' W 005°01'5 8.5
2018-Jan-10 09:27N 48°24' W 004°57'511.3
2018-Jan-10 09:01N 48°23' W 004°50'2 4.6
2018-Jan-10 08:30N 48°21' W 004°47'611.8
2018-Jan-10 08:01N 48°20' W 004°39'713.1
2018-Jan-10 07:30N 48°22' W 004°29'1 1.4
2018-Jan-10 06:57N 48°23' W 004°29'0 0.0
2018-Jan-10 06:23N 48°23' W 004°29'0 0.0
2018-Jan-10 06:00N 48°23' W 004°29'0 0.0
2018-Jan-10 05:30N 48°23' W 004°29'0 0.0
2018-Jan-10 04:57N 48°23' W 004°29'0 0.0
2018-Jan-10 04:28N 48°23' W 004°29'0 0.0
2018-Jan-10 04:00N 48°23' W 004°29'0 0.0
2018-Jan-10 03:29N 48°23' W 004°29'0 0.0
2018-Jan-10 02:58N 48°23' W 004°29'0 0.0
2018-Jan-10 02:28N 48°23' W 004°29'0 0.0
2018-Jan-10 01:59N 48°23' W 004°29'0 0.0
2018-Jan-10 01:28N 48°23' W 004°29'0 0.0
2018-Jan-10 00:59N 48°23' W 004°29'0 0.0
2018-Jan-10 00:30N 48°23' W 004°29'0 0.0
2018-Jan-10 00:00N 48°23' W 004°29'0 0.0
2018-Jan-09 23:30N 48°23' W 004°29'0 0.0
2018-Jan-09 22:59N 48°23' W 004°29'0 0.0
2018-Jan-09 22:24N 48°23' W 004°29'0 0.0
2018-Jan-09 22:00N 48°23' W 004°29'0 0.0
2018-Jan-09 21:28N 48°23' W 004°29'0 0.0
2018-Jan-09 21:00N 48°23' W 004°29'0 0.0
2018-Jan-09 20:30N 48°23' W 004°29'0 0.0
2018-Jan-09 19:58N 48°23' W 004°29'0 0.0
2018-Jan-09 19:27N 48°23' W 004°29'0 0.0
2018-Jan-09 18:53N 48°23' W 004°29'0 0.0
2018-Jan-09 18:29N 48°23' W 004°29'0 0.0
2018-Jan-09 18:00N 48°23' W 004°29'0 0.0
2018-Jan-09 17:27N 48°23' W 004°29'0 0.0
2018-Jan-09 17:00N 48°23' W 004°29'0 0.0
2018-Jan-09 16:28N 48°23' W 004°29'0 0.0
2018-Jan-09 15:58N 48°23' W 004°29'0 0.0
2018-Jan-09 15:29N 48°23' W 004°29'0 0.0
2018-Jan-09 14:59N 48°23' W 004°29'0 0.0
2018-Jan-09 14:30N 48°23' W 004°29'0 0.0
2018-Jan-09 14:00N 48°23' W 004°29'0 0.0
2018-Jan-09 13:30N 48°23' W 004°29'0 0.0
2018-Jan-09 13:00N 48°23' W 004°29'0 0.0
2018-Jan-09 12:30N 48°23' W 004°29'0 0.0
2018-Jan-09 12:00N 48°23' W 004°29'0 0.0
2018-Jan-09 11:24N 48°23' W 004°29'0 0.0
2018-Jan-09 11:00N 48°23' W 004°29'0 0.0
2018-Jan-09 10:29N 48°23' W 004°29'0 0.0
2018-Jan-09 09:59N 48°23' W 004°29'0 0.0
2018-Jan-09 09:29N 48°23' W 004°29'0 0.0
2018-Jan-09 08:59N 48°23' W 004°29'0 0.0
2018-Jan-09 08:29N 48°23' W 004°29'0 0.0
2018-Jan-09 07:59N 48°23' W 004°29'0 0.0
2018-Jan-09 07:29N 48°23' W 004°29'0 0.0
2018-Jan-09 06:55N 48°23' W 004°29'0 0.0
2018-Jan-09 06:28N 48°23' W 004°29'0 0.0
2018-Jan-09 05:57N 48°23' W 004°29'0 0.0
2018-Jan-09 05:29N 48°23' W 004°29'0 0.0
2018-Jan-09 05:00N 48°23' W 004°29'0 0.0
2018-Jan-09 04:29N 48°23' W 004°29'0 0.0
2018-Jan-09 04:00N 48°23' W 004°29'0 0.0
2018-Jan-09 03:25N 48°23' W 004°29'0 0.0
2018-Jan-09 03:00N 48°23' W 004°29'0 0.0
2018-Jan-09 02:28N 48°23' W 004°29'0 0.0
2018-Jan-09 01:58N 48°23' W 004°29'0 0.0
2018-Jan-09 01:29N 48°23' W 004°29'0 0.0
2018-Jan-09 00:58N 48°23' W 004°29'0 0.0
2018-Jan-09 00:28N 48°23' W 004°29'0 0.0
2018-Jan-09 00:00N 48°23' W 004°29'0 0.0
2018-Jan-08 23:30N 48°23' W 004°29'0 0.0
2018-Jan-08 23:00N 48°23' W 004°29'0 0.0
2018-Jan-08 22:30N 48°23' W 004°29'0 0.0
2018-Jan-08 21:59N 48°23' W 004°29'0 0.0
2018-Jan-08 21:29N 48°23' W 004°29'0 0.0
2018-Jan-08 21:00N 48°23' W 004°29'0 0.0
2018-Jan-08 20:29N 48°23' W 004°29'0 0.0
2018-Jan-08 19:58N 48°23' W 004°29'0 0.0
2018-Jan-08 19:28N 48°23' W 004°29'0 0.0
2018-Jan-08 19:00N 48°23' W 004°29'0 0.0
2018-Jan-08 18:30N 48°23' W 004°29'2 4.1
2018-Jan-08 18:01N 48°21' W 004°31'816.2
2018-Jan-08 17:31N 48°20' W 004°43'3 6.4
2018-Jan-08 17:00N 48°22' W 004°47'5 9.6
2018-Jan-08 16:30N 48°24' W 004°53'3 5.7
2018-Jan-08 16:00N 48°25' W 004°57'5 4.1
2018-Jan-08 14:42N 48°28' W 005°03'0 0.0
2018-Jan-08 14:30N 48°28' W 005°03'0 0.0
2018-Jan-08 14:00N 48°28' W 005°03'0 0.0
2018-Jan-08 13:30N 48°28' W 005°03'0 0.0
2018-Jan-08 12:45N 48°28' W 005°03'0 0.0
2018-Jan-08 12:30N 48°28' W 005°03'0 0.0
2018-Jan-08 12:00N 48°28' W 005°03'0 0.0
2018-Jan-08 11:30N 48°28' W 005°03'0 0.0
2018-Jan-08 10:48N 48°28' W 005°03'0 0.0
2018-Jan-08 10:30N 48°28' W 005°03'1 2.7
2018-Jan-08 10:01N 48°28' W 005°01'  

Dump ship's entire track history